Time;durP1;ratioP1;P1;durP2;ratioP2;P2;SDS_P1;SDS_P2;PMS_P1;PMS_P2;Temp;Humidity;BMP_temperature;BMP_pressure;BME280_temperature;BME280_humidity;BME280_pressure;Samples;Min_cycle;Max_cycle;Signal;HPM_P1;HPM_P2
2023/02/25 00:01:26;;;;;;;0.10;0.10;;;;;;;6.02;68.13;100987.13;4991778;28;20088;-85
2023/02/25 00:03:54;;;;;;;0.10;0.10;;;;;;;6.07;67.78;100993.25;4991942;28;20018;-87
2023/02/25 00:06:22;;;;;;;0.15;0.15;;;;;;;6.07;67.28;100993.25;4990680;28;20022;-85
2023/02/25 00:08:49;;;;;;;0.17;0.17;;;;;;;6.13;67.99;100988.00;4988210;28;20023;-85
2023/02/25 00:11:17;;;;;;;0.10;0.10;;;;;;;6.13;67.57;100990.63;4993919;28;20034;-85
2023/02/25 00:13:44;;;;;;;0.10;0.10;;;;;;;6.15;67.50;100988.00;4990485;28;20037;-85
2023/02/25 00:16:12;;;;;;;0.10;0.10;;;;;;;6.12;67.39;100980.13;4994278;28;20033;-86
2023/02/25 00:18:43;;;;;;;0.10;0.10;;;;;;;6.08;67.47;100981.88;4994448;28;20230;-86
2023/02/25 00:21:13;;;;;;;0.10;0.10;;;;;;;6.04;67.80;100977.44;4992609;28;20038;-87
2023/02/25 00:23:42;;;;;;;0.15;0.15;;;;;;;5.99;67.49;100972.22;4992457;28;20455;-86
2023/02/25 00:26:10;;;;;;;0.10;0.10;;;;;;;5.95;67.84;100969.53;4993316;28;20030;-85
2023/02/25 00:28:38;;;;;;;0.10;0.10;;;;;;;5.90;67.57;100976.53;4993189;28;20409;-85
2023/02/25 00:31:07;;;;;;;0.10;0.10;;;;;;;5.83;67.97;100979.16;4992752;28;20029;-85
2023/02/25 00:33:34;;;;;;;0.10;0.10;;;;;;;5.80;68.04;100984.41;4995177;28;20058;-86
2023/02/25 00:36:04;;;;;;;0.10;0.10;;;;;;;5.79;67.97;100985.28;4996369;28;20054;-84
2023/02/25 00:38:30;;;;;;;0.13;0.13;;;;;;;5.82;68.02;100990.56;4994197;28;20054;-85
2023/02/25 00:40:56;;;;;;;0.10;0.10;;;;;;;5.82;68.11;100987.91;4991381;28;20117;-86
2023/02/25 00:43:22;;;;;;;0.13;0.13;;;;;;;5.83;68.00;100989.69;4992970;28;20455;-85
2023/02/25 00:45:48;;;;;;;0.20;0.20;;;;;;;5.88;68.00;100991.44;5005189;28;20075;-84
2023/02/25 00:48:14;;;;;;;1.30;1.30;;;;;;;5.86;67.99;100987.91;5007026;28;20081;-83
2023/02/25 00:50:40;;;;;;;0.10;0.10;;;;;;;5.74;67.72;100986.16;5006493;28;20033;-84
2023/02/25 00:53:06;;;;;;;0.20;0.20;;;;;;;5.76;67.68;100993.16;4993957;28;20041;-84
2023/02/25 00:55:33;;;;;;;0.20;0.20;;;;;;;5.79;67.68;100990.53;4992089;28;20512;-84
2023/02/25 00:58:00;;;;;;;0.10;0.10;;;;;;;5.78;67.80;100985.28;4992552;28;20030;-84
2023/02/25 01:00:28;;;;;;;0.20;0.20;;;;;;;5.82;67.71;100987.91;4992894;28;20026;-84
2023/02/25 01:02:56;;;;;;;0.20;0.20;;;;;;;5.82;67.46;100987.06;4992175;28;20030;-84
2023/02/25 01:05:22;;;;;;;0.17;0.17;;;;;;;5.89;67.29;100983.53;4995356;28;20547;-85
2023/02/25 01:07:48;;;;;;;0.45;0.45;;;;;;;5.88;66.72;100986.19;4995637;28;20054;-82
2023/02/25 01:10:14;;;;;;;0.20;0.20;;;;;;;5.94;66.92;101002.84;4992469;28;20087;-84
2023/02/25 01:12:41;;;;;;;0.10;0.10;;;;;;;5.98;67.17;101008.97;5011467;28;20018;-83
2023/02/25 01:15:07;;;;;;;0.10;0.10;;;;;;;6.02;66.49;101004.63;5011469;28;20078;-83
2023/02/25 01:17:33;;;;;;;0.10;0.10;;;;;;;6.06;66.32;101002.03;5002166;28;20105;-85
2023/02/25 01:20:00;;;;;;;0.17;0.17;;;;;;;6.09;66.56;101012.56;4993598;28;20074;-86
2023/02/25 01:22:26;;;;;;;7.28;2.80;;;;;;;6.17;66.56;101009.03;4991955;28;20238;-84
2023/02/25 01:24:54;;;;;;;0.10;0.10;;;;;;;6.20;66.48;101019.56;4992135;28;20049;-85
2023/02/25 01:27:21;;;;;;;0.10;0.10;;;;;;;6.24;66.79;101013.44;4998921;28;20093;-85
2023/02/25 01:29:47;;;;;;;0.10;0.10;;;;;;;6.21;66.48;101005.56;4996005;28;20027;-84
2023/02/25 01:32:14;;;;;;;0.10;0.10;;;;;;;6.24;66.61;101003.81;5000894;28;20526;-84
2023/02/25 01:34:40;;;;;;;0.20;0.20;;;;;;;6.27;66.62;101000.28;5001813;28;20034;-84
2023/02/25 01:37:07;;;;;;;0.17;0.17;;;;;;;6.25;66.77;101007.28;4997729;28;20499;-85
2023/02/25 01:39:34;;;;;;;0.10;0.10;;;;;;;6.26;66.47;101012.56;4995701;28;20023;-85
2023/02/25 01:42:03;;;;;;;0.10;0.10;;;;;;;6.38;66.71;100993.28;4993651;28;20022;-86
2023/02/25 01:44:32;;;;;;;0.10;0.10;;;;;;;6.38;66.69;101006.44;4996076;28;20041;-86
2023/02/25 01:47:00;;;;;;;0.10;0.10;;;;;;;6.37;67.08;101002.03;4991230;28;20045;-85
2023/02/25 01:49:33;;;;;;;0.20;0.20;;;;;;;6.36;66.41;100989.75;4992462;28;20517;-85
2023/02/25 01:52:07;;;;;;;1.73;1.40;;;;;;;6.33;66.29;101008.19;4993546;28;20035;-84
2023/02/25 01:54:35;;;;;;;10.63;3.80;;;;;;;6.29;66.49;101003.78;4996883;28;20034;-85
2023/02/25 01:57:06;;;;;;;0.10;0.10;;;;;;;6.27;66.34;101001.16;4993615;28;20030;-84
2023/02/25 01:59:33;;;;;;;0.10;0.10;;;;;;;6.21;66.38;101005.56;4997064;28;20029;-85
2023/02/25 02:01:59;;;;;;;0.10;0.10;;;;;;;6.15;66.26;101002.00;4996012;28;20457;-84
2023/02/25 02:04:25;;;;;;;0.10;0.10;;;;;;;6.17;66.37;101003.78;4991788;28;20042;-84
2023/02/25 02:06:53;;;;;;;0.10;0.10;;;;;;;6.15;66.25;101002.00;5010574;28;20018;-83
2023/02/25 02:09:24;;;;;;;1.05;1.05;;;;;;;6.25;66.29;101007.28;5014809;28;20042;-85
2023/02/25 02:11:50;;;;;;;0.10;0.10;;;;;;;6.27;66.14;101000.28;4998446;28;20030;-84
2023/02/25 02:14:22;;;;;;;0.10;0.10;;;;;;;6.34;66.66;101001.16;4994020;28;20030;-85
2023/02/25 02:26:08;;;;;;;0.10;0.10;;;;;;;6.53;65.96;100992.38;5103604;27;1213729;-85
2023/02/25 02:29:14;;;;;;;0.10;0.10;;;;;;;6.46;65.74;101002.03;5121985;28;20043;-84
2023/02/25 02:31:55;;;;;;;0.13;0.13;;;;;;;6.50;66.10;100999.41;5131415;28;20038;-84
2023/02/25 02:37:21;;;;;;;0.10;0.10;;;;;;;6.53;65.80;100999.38;5090051;27;20122;-85
2023/02/25 02:40:15;;;;;;;0.10;0.10;;;;;;;6.52;64.80;101000.25;5087461;28;20051;-86
2023/02/25 02:48:18;;;;;;;0.10;0.10;;;;;;;6.45;64.02;101000.25;5117152;27;20369;-86
2023/02/25 02:50:51;;;;;;;4.03;2.80;;;;;;;6.45;63.72;101005.53;5107813;28;20107;-85
2023/02/25 02:53:24;;;;;;;0.10;0.10;;;;;;;6.50;63.99;101002.91;5106118;28;20084;-87
2023/02/25 02:55:55;;;;;;;0.20;0.20;;;;;;;6.53;63.90;100999.38;5105739;28;20406;-87
2023/02/25 02:58:28;;;;;;;0.20;0.20;;;;;;;6.55;64.40;101014.28;5106797;28;20031;-85
2023/02/25 03:01:20;;;;;;;0.10;0.10;;;;;;;6.59;64.16;101023.97;5106788;28;20028;-85
2023/02/25 03:03:53;;;;;;;0.10;0.10;;;;;;;6.43;64.76;101036.25;5106327;28;20110;-85
2023/02/25 03:06:24;;;;;;;0.10;0.10;;;;;;;6.35;65.81;101031.88;5108758;28;20023;-85
2023/02/25 03:08:57;;;;;;;0.20;0.20;;;;;;;6.23;66.40;101040.63;5106217;28;20031;-86
2023/02/25 03:11:23;;;;;;;0.10;0.10;;;;;;;6.21;66.40;101031.88;5105405;28;20103;-87
2023/02/25 03:13:50;;;;;;;0.10;0.10;;;;;;;6.13;66.55;101023.94;5099487;28;20020;-86
2023/02/25 03:16:24;;;;;;;0.10;0.10;;;;;;;6.15;66.22;101017.78;5107734;28;20066;-86
2023/02/25 03:18:59;;;;;;;0.10;0.10;;;;;;;6.11;66.45;101016.03;5103148;28;20040;-86
2023/02/25 03:21:31;;;;;;;2.20;1.90;;;;;;;6.01;66.76;101014.28;5110897;28;20093;-87
2023/02/25 03:23:59;;;;;;;0.10;0.10;;;;;;;5.99;66.46;101021.28;5102723;28;20153;-84
2023/02/25 03:26:30;;;;;;;0.10;0.10;;;;;;;5.99;66.22;101023.91;5108914;28;20024;-86
2023/02/25 03:28:56;;;;;;;0.10;0.10;;;;;;;5.96;65.96;101032.66;5119173;28;20077;-87
2023/02/25 03:31:28;;;;;;;0.10;0.10;;;;;;;5.92;65.88;101030.91;5122097;28;20075;-86
2023/02/25 03:34:00;;;;;;;0.10;0.10;;;;;;;5.98;66.09;101024.75;5110627;28;20039;-86
2023/02/25 03:39:08;;;;;;;0.10;0.10;;;;;;;5.96;65.64;101031.78;5101224;27;1174300;-87
2023/02/25 03:41:38;;;;;;;0.20;0.20;;;;;;;5.87;65.09;101037.91;5124869;27;20031;-86
2023/02/25 03:44:11;;;;;;;0.10;0.10;;;;;;;5.97;65.47;101029.16;5142710;28;20038;-85
2023/02/25 03:46:40;;;;;;;0.10;0.10;;;;;;;5.98;65.21;101032.66;5135242;27;20062;-86
2023/02/25 03:49:09;;;;;;;0.10;0.10;;;;;;;5.97;65.26;101028.28;5127732;27;20113;-86
2023/02/25 03:51:38;;;;;;;0.10;0.10;;;;;;;6.02;65.62;101031.84;5123944;28;20032;-86
2023/02/25 03:54:05;;;;;;;0.10;0.10;;;;;;;6.02;65.52;101029.19;5123966;27;20027;-87
2023/02/25 03:56:44;;;;;;;0.10;0.10;;;;;;;6.02;65.26;101020.41;5131429;28;20054;-85
2023/02/25 03:59:10;;;;;;;0.20;0.20;;;;;;;5.92;65.38;101032.63;5143479;28;20016;-86
2023/02/25 04:01:38;;;;;;;0.10;0.10;;;;;;;5.86;65.54;101029.97;5134570;27;20203;-86
2023/02/25 04:04:04;;;;;;;0.10;0.10;;;;;;;5.80;65.65;101037.00;5122011;27;20102;-86
2023/02/25 04:06:31;;;;;;;0.20;0.20;;;;;;;5.74;65.80;101036.97;5127111;28;20031;-87
2023/02/25 04:08:57;;;;;;;0.10;0.10;;;;;;;5.71;65.93;101042.22;5121171;27;20021;-86
2023/02/25 04:11:24;;;;;;;0.20;0.20;;;;;;;5.66;66.06;101033.47;5129478;27;20031;-87
2023/02/25 04:13:50;;;;;;;0.17;0.17;;;;;;;5.66;66.34;101028.19;5127739;28;20020;-86
2023/02/25 04:16:16;;;;;;;0.10;0.10;;;;;;;5.66;66.48;101025.56;5144663;27;20035;-86
2023/02/25 04:18:42;;;;;;;0.15;0.15;;;;;;;5.70;66.56;101029.97;5131634;27;20391;-85
2023/02/25 04:21:22;;;;;;;0.20;0.20;;;;;;;5.78;66.48;101032.59;5146559;27;20077;-85
2023/02/25 04:23:48;;;;;;;0.10;0.10;;;;;;;5.83;66.46;101037.00;5134323;28;20023;-85
2023/02/25 04:26:14;;;;;;;0.10;0.10;;;;;;;5.86;66.38;101036.13;5133185;28;20031;-85
2023/02/25 04:28:40;;;;;;;0.10;0.10;;;;;;;5.91;66.10;101038.78;5116756;27;20169;-86
2023/02/25 04:31:06;;;;;;;0.20;0.20;;;;;;;5.96;66.14;101042.31;5128250;28;20087;-86
2023/02/25 04:33:32;;;;;;;0.20;0.20;;;;;;;6.03;66.21;101048.47;5114930;27;20038;-86
2023/02/25 04:35:58;;;;;;;0.10;0.10;;;;;;;6.05;65.84;101071.28;5110395;28;20024;-87
2023/02/25 04:38:25;;;;;;;0.10;0.10;;;;;;;5.94;65.24;101078.22;5117882;28;20055;-85
2023/02/25 04:40:51;;;;;;;0.10;0.10;;;;;;;5.97;65.71;101083.53;5113863;27;20019;-86
2023/02/25 04:43:17;;;;;;;0.20;0.20;;;;;;;6.09;66.05;101064.28;5109045;28;20032;-87
2023/02/25 04:45:43;;;;;;;0.13;0.13;;;;;;;6.07;65.97;101066.91;5105641;28;20165;-87
2023/02/25 04:48:09;;;;;;;0.10;0.10;;;;;;;6.01;66.16;101066.00;5113363;27;20032;-87
2023/02/25 04:50:35;;;;;;;0.20;0.20;;;;;;;5.95;65.78;101070.34;5113382;28;20031;-87
2023/02/25 04:53:02;;;;;;;0.20;0.20;;;;;;;5.92;65.79;101075.59;5114002;28;20031;-87
2023/02/25 04:55:28;;;;;;;0.35;0.35;;;;;;;5.87;65.47;101079.09;5112257;28;20044;-86
2023/02/25 04:57:55;;;;;;;0.20;0.20;;;;;;;5.88;65.51;101068.59;5112105;28;20035;-86
2023/02/25 05:00:25;;;;;;;0.13;0.13;;;;;;;5.87;65.09;101068.56;5109865;28;20034;-86
2023/02/25 05:02:51;;;;;;;0.10;0.10;;;;;;;5.83;65.33;101071.19;5099194;28;20036;-87
2023/02/25 05:05:18;;;;;;;0.10;0.10;;;;;;;5.85;65.43;101065.06;5097280;28;20024;-86
2023/02/25 05:07:44;;;;;;;0.10;0.10;;;;;;;5.82;65.24;101076.47;5092955;27;20040;-85
2023/02/25 05:10:11;;;;;;;0.13;0.13;;;;;;;5.71;65.33;101079.03;5091993;28;20038;-85
2023/02/25 05:12:37;;;;;;;0.10;0.10;;;;;;;5.71;65.35;101078.16;5097821;28;20024;-87
2023/02/25 05:15:04;;;;;;;0.13;0.13;;;;;;;5.69;65.78;101079.91;5095914;28;20028;-87
2023/02/25 05:17:31;;;;;;;0.10;0.10;;;;;;;5.66;65.80;101086.03;5114830;28;20031;-87
2023/02/25 05:19:57;;;;;;;0.10;0.10;;;;;;;5.66;65.81;101079.00;5109150;28;20036;-86
2023/02/25 05:22:24;;;;;;;0.28;0.28;;;;;;;5.62;65.88;101074.63;5101002;28;20031;-87
2023/02/25 05:24:50;;;;;;;0.20;0.20;;;;;;;5.60;65.97;101076.34;5093909;28;20056;-87
2023/02/25 05:27:16;;;;;;;0.10;0.10;;;;;;;5.51;66.31;101076.34;5112927;28;20028;-86
2023/02/25 05:29:42;;;;;;;0.10;0.10;;;;;;;5.58;66.36;101071.97;5095380;28;20020;-86
2023/02/25 05:32:09;;;;;;;0.10;0.10;;;;;;;5.55;66.34;101077.22;5117626;28;20016;-86
2023/02/25 05:34:35;;;;;;;0.10;0.10;;;;;;;5.59;66.20;101079.84;5118430;28;20026;-86
2023/02/25 05:37:01;;;;;;;0.20;0.20;;;;;;;5.56;66.20;101079.84;5129564;28;20119;-86
2023/02/25 05:39:27;;;;;;;0.10;0.10;;;;;;;5.59;66.27;101079.00;5108578;28;20039;-85
2023/02/25 05:41:53;;;;;;;0.10;0.10;;;;;;;5.57;66.28;101076.38;5103047;27;20402;-86
2023/02/25 05:44:19;;;;;;;0.10;0.10;;;;;;;5.53;66.28;101076.34;5103297;28;20032;-86
2023/02/25 05:46:45;;;;;;;0.10;0.10;;;;;;;5.53;66.42;101076.34;5102507;28;20057;-86
2023/02/25 05:49:11;;;;;;;0.10;0.10;;;;;;;5.51;66.42;101076.34;5107407;28;20028;-86
2023/02/25 05:51:37;;;;;;;0.10;0.10;;;;;;;5.48;66.23;101081.56;5109521;28;20470;-87
2023/02/25 05:54:04;;;;;;;0.10;0.10;;;;;;;5.44;66.44;101083.28;5127401;28;20023;-85
2023/02/25 05:56:30;;;;;;;0.20;0.20;;;;;;;5.48;66.28;101082.44;5133301;28;20016;-85
2023/02/25 05:58:56;;;;;;;0.10;0.10;;;;;;;5.46;66.26;101076.31;5113912;28;20043;-86
2023/02/25 06:01:26;;;;;;;0.90;0.90;;;;;;;5.47;66.54;101072.81;5093871;28;20026;-87
2023/02/25 06:03:57;;;;;;;0.20;0.20;;;;;;;5.43;66.26;101067.53;5098409;28;20538;-86
2023/02/25 06:06:25;;;;;;;0.10;0.10;;;;;;;5.48;66.35;101065.78;5102777;28;20028;-86
2023/02/25 06:08:52;;;;;;;0.20;0.20;;;;;;;5.46;66.24;101076.31;5101452;28;20027;-86
2023/02/25 06:11:21;;;;;;;0.20;0.20;;;;;;;5.45;66.47;101076.31;5103034;28;20028;-86
2023/02/25 06:13:49;;;;;;;0.13;0.13;;;;;;;5.46;66.56;101078.94;5098944;28;20024;-86
2023/02/25 06:16:16;;;;;;;0.20;0.20;;;;;;;5.39;66.13;101073.66;5103811;28;20713;-86
2023/02/25 06:18:42;;;;;;;0.10;0.10;;;;;;;5.38;66.41;101088.50;5099048;28;20103;-86
2023/02/25 06:21:11;;;;;;;0.65;0.65;;;;;;;5.39;66.28;101092.03;5110696;28;20038;-86
2023/02/25 06:23:39;;;;;;;0.10;0.10;;;;;;;5.38;65.71;101096.41;5093990;28;20497;-85
2023/02/25 06:26:07;;;;;;;0.20;0.20;;;;;;;5.38;65.78;101096.41;5108256;28;20529;-87
2023/02/25 06:28:35;;;;;;;0.20;0.20;;;;;;;5.41;65.59;101100.78;5097183;28;20066;-86
2023/02/25 06:31:01;;;;;;;0.10;0.10;;;;;;;5.41;65.62;101106.03;5094790;28;20084;-87
2023/02/25 06:33:30;;;;;;;0.10;0.10;;;;;;;5.46;65.72;101105.22;5095556;28;20021;-87
2023/02/25 06:35:57;;;;;;;0.15;0.15;;;;;;;5.41;65.45;101106.94;5096755;28;20024;-86
2023/02/25 06:38:24;;;;;;;3.47;3.20;;;;;;;5.43;65.55;101105.22;5095372;28;20101;-87
2023/02/25 06:40:50;;;;;;;0.20;0.20;;;;;;;5.43;65.41;101115.72;5093826;28;20028;-86
2023/02/25 06:43:17;;;;;;;0.20;0.20;;;;;;;5.49;65.53;101115.72;5093235;28;20024;-84
2023/02/25 06:45:43;;;;;;;0.17;0.17;;;;;;;5.48;65.32;101119.25;5094742;28;20073;-87
2023/02/25 06:48:09;;;;;;;0.47;0.47;;;;;;;5.47;64.83;101108.69;5101437;28;20099;-86
2023/02/25 06:50:39;;;;;;;0.10;0.10;;;;;;;5.50;65.38;101112.22;5103882;28;20043;-86
2023/02/25 06:53:05;;;;;;;0.30;0.30;;;;;;;5.54;65.35;101118.38;5097792;28;20024;-85
2023/02/25 06:55:31;;;;;;;0.20;0.20;;;;;;;5.59;65.11;101121.91;5113388;28;20031;-86
2023/02/25 06:57:57;;;;;;;0.20;0.20;;;;;;;5.68;65.23;101113.19;5104133;28;20081;-86
2023/02/25 07:00:23;;;;;;;0.20;0.20;;;;;;;5.75;65.03;101127.25;5105685;28;20097;-87
2023/02/25 07:02:50;;;;;;;0.65;0.65;;;;;;;5.81;64.79;101117.63;5094332;28;20028;-85
2023/02/25 07:05:16;;;;;;;0.20;0.20;;;;;;;5.81;64.66;101129.91;5100044;28;20081;-85
2023/02/25 07:07:42;;;;;;;0.10;0.10;;;;;;;5.79;64.75;101127.25;5110836;28;20036;-84
2023/02/25 07:10:09;;;;;;;0.10;0.10;;;;;;;5.80;64.30;101131.66;5117785;28;20024;-85
2023/02/25 07:12:35;;;;;;;0.10;0.10;;;;;;;5.82;63.79;101140.44;5112884;28;20032;-86
2023/02/25 07:15:02;;;;;;;0.10;0.10;;;;;;;5.92;63.75;101151.88;5093921;28;20028;-86
2023/02/25 07:17:28;;;;;;;0.10;0.10;;;;;;;6.02;64.10;101147.56;5093006;28;20038;-86
2023/02/25 07:19:55;;;;;;;0.10;0.10;;;;;;;6.08;64.45;101147.59;5105496;28;20015;-85
2023/02/25 07:22:21;;;;;;;0.10;0.10;;;;;;;6.09;64.06;101144.09;5117601;28;20023;-86
2023/02/25 07:24:47;;;;;;;0.47;0.47;;;;;;;6.14;64.23;101158.13;5105249;28;20020;-86
2023/02/25 07:27:13;;;;;;;0.10;0.10;;;;;;;6.10;63.91;101156.34;5113863;28;20048;-83
2023/02/25 07:29:43;;;;;;;0.20;0.20;;;;;;;6.19;63.99;101159.88;5115138;28;20035;-86
2023/02/25 07:32:09;;;;;;;0.20;0.20;;;;;;;6.21;63.83;101158.16;5115705;28;20020;-87
2023/02/25 07:34:37;;;;;;;0.15;0.15;;;;;;;6.23;63.70;101161.66;5099148;28;20039;-87
2023/02/25 07:37:03;;;;;;;0.10;0.10;;;;;;;6.13;63.40;101155.47;5094248;28;20043;-87
2023/02/25 07:39:48;;;;;;;;;;;;;;;;;;;;;
2023/02/25 07:42:22;;;;;;;0.30;0.30;;;;;;;6.21;63.90;101168.69;5107424;28;20119;-86
2023/02/25 07:44:48;;;;;;;0.15;0.15;;;;;;;6.22;64.06;101165.16;5102592;28;20506;-87
2023/02/25 07:47:14;;;;;;;0.20;0.20;;;;;;;6.23;64.14;101166.91;5095761;28;20103;-86
2023/02/25 07:49:40;;;;;;;0.10;0.10;;;;;;;6.21;64.12;101168.69;5101025;28;20024;-85
2023/02/25 07:52:07;;;;;;;2.90;2.72;;;;;;;6.20;64.15;101170.41;5089333;28;20074;-86
2023/02/25 07:54:33;;;;;;;0.10;0.10;;;;;;;6.21;64.16;101171.31;5092229;28;20107;-86
2023/02/25 07:57:00;;;;;;;0.10;0.10;;;;;;;6.20;64.33;101178.31;5103414;28;20038;-87
2023/02/25 07:59:26;;;;;;;0.17;0.17;;;;;;;6.25;64.27;101175.69;5093557;28;20031;-86
2023/02/25 08:01:52;;;;;;;0.20;0.20;;;;;;;6.26;64.37;101172.19;5092629;28;20032;-86
2023/02/25 08:04:18;;;;;;;3.47;3.17;;;;;;;6.27;64.31;101181.84;5092280;28;20047;-85
2023/02/25 08:06:45;;;;;;;0.10;0.10;;;;;;;6.34;64.14;101182.75;5103399;28;20032;-86
2023/02/25 08:09:12;;;;;;;0.20;0.20;;;;;;;6.32;63.81;101186.25;5092799;28;20028;-86
2023/02/25 08:11:39;;;;;;;0.10;0.10;;;;;;;6.35;63.41;101188.00;5091446;28;20505;-85
2023/02/25 08:14:06;;;;;;;0.20;0.20;;;;;;;6.38;63.74;101184.50;5096229;28;20028;-86
2023/02/25 08:16:32;;;;;;;1.55;1.55;;;;;;;6.47;63.41;101189.81;5092432;28;20020;-85
2023/02/25 08:18:59;;;;;;;0.20;0.20;;;;;;;6.41;62.99;101197.69;5102497;28;20020;-85
2023/02/25 08:21:25;;;;;;;0.10;0.10;;;;;;;6.60;63.38;101194.22;5092332;28;20097;-85
2023/02/25 08:23:52;;;;;;;0.10;0.10;;;;;;;6.56;62.77;101199.47;5092627;28;20158;-87
2023/02/25 08:26:21;;;;;;;0.10;0.10;;;;;;;6.71;62.95;101204.75;5096372;28;20042;-85
2023/02/25 08:28:48;;;;;;;0.10;0.10;;;;;;;6.67;62.35;101189.84;5098923;28;20026;-86
2023/02/25 08:31:15;;;;;;;0.10;0.10;;;;;;;6.76;61.72;101195.13;5103211;28;20114;-86
2023/02/25 08:33:48;;;;;;;0.20;0.20;;;;;;;6.73;61.37;101216.19;5090639;28;20021;-86
2023/02/25 08:36:17;;;;;;;0.20;0.20;;;;;;;6.81;61.09;101203.03;5088828;28;20086;-86
2023/02/25 08:38:43;;;;;;;0.15;0.15;;;;;;;6.94;61.36;101203.91;5093180;28;20032;-86
2023/02/25 08:41:10;;;;;;;0.30;0.30;;;;;;;7.00;61.10;101200.41;5104465;28;20055;-86
2023/02/25 08:43:37;;;;;;;0.10;0.10;;;;;;;7.03;60.71;101198.66;5113897;28;20027;-84
2023/02/25 08:46:03;;;;;;;0.10;0.10;;;;;;;7.15;60.97;101207.44;5120059;28;20008;-85
2023/02/25 08:48:29;;;;;;;5.95;1.92;;;;;;;7.13;60.20;101205.69;5125287;28;20100;-86
2023/02/25 08:50:55;;;;;;;0.10;0.10;;;;;;;7.09;60.56;101209.19;5113947;28;20040;-85
2023/02/25 08:53:22;;;;;;;0.10;0.10;;;;;;;7.15;60.62;101207.44;5108066;28;20036;-84
2023/02/25 08:55:49;;;;;;;0.20;0.20;;;;;;;7.31;59.96;101209.19;5096714;28;20054;-85
2023/02/25 08:58:15;;;;;;;0.70;0.70;;;;;;;7.45;60.80;101210.06;5103400;28;20040;-85
2023/02/25 09:00:42;;;;;;;0.15;0.15;;;;;;;7.48;59.16;101213.56;5105437;28;20039;-85
2023/02/25 09:03:08;;;;;;;0.10;0.10;;;;;;;7.55;59.03;101218.84;5113256;28;20041;-84
2023/02/25 09:05:34;;;;;;;0.20;0.20;;;;;;;7.61;58.41;101223.22;5106861;28;20057;-86
2023/02/25 09:08:00;;;;;;;0.13;0.13;;;;;;;7.74;58.52;101217.03;5112175;28;20383;-84
2023/02/25 09:10:26;;;;;;;0.13;0.13;;;;;;;7.74;58.35;101230.22;5095208;28;20444;-85
2023/02/25 09:12:53;;;;;;;0.30;0.30;;;;;;;7.81;59.13;101246.03;5094850;28;20056;-83
2023/02/25 09:15:20;;;;;;;0.13;0.13;;;;;;;7.81;60.31;101257.47;5096590;28;20020;-90
2023/02/25 09:17:46;;;;;;;0.70;0.40;;;;;;;7.55;62.10;101249.59;5096870;28;20077;-90
2023/02/25 09:20:13;;;;;;;0.10;0.10;;;;;;;7.36;63.78;101248.72;5098045;28;20420;-91
2023/02/25 09:22:39;;;;;;;0.10;0.10;;;;;;;7.22;65.05;101251.38;5095755;28;20383;-91
2023/02/25 09:25:06;;;;;;;0.20;0.20;;;;;;;7.15;66.39;101260.16;5104582;28;20038;-91
2023/02/25 09:27:32;;;;;;;0.15;0.15;;;;;;;7.09;65.87;101261.91;5102926;28;20026;-91
2023/02/25 09:29:58;;;;;;;0.20;0.20;;;;;;;7.10;66.79;101262.78;5101746;28;20338;-91
2023/02/25 09:32:25;;;;;;;0.20;0.20;;;;;;;7.10;67.11;101266.31;5100428;28;20279;-90
2023/02/25 09:34:51;;;;;;;0.20;0.20;;;;;;;7.20;66.38;101255.75;5097633;28;20402;-88
2023/02/25 09:37:18;;;;;;;0.17;0.17;;;;;;;7.26;66.07;101268.94;5098789;28;20387;-89
2023/02/25 09:39:45;;;;;;;0.20;0.20;;;;;;;7.21;65.48;101263.66;5104716;28;20019;-89
2023/02/25 09:42:40;;;;;;;0.15;0.15;;;;;;;7.33;65.50;101270.69;5098483;28;20028;-89
2023/02/25 09:45:16;;;;;;;0.20;0.20;;;;;;;7.29;65.29;101277.72;5097055;28;20129;-90
2023/02/25 09:47:51;;;;;;;0.20;0.20;;;;;;;7.35;64.96;101281.25;5111289;28;20026;-88
2023/02/25 09:50:24;;;;;;;0.20;0.20;;;;;;;7.31;64.95;101272.44;5098579;28;20020;-87
2023/02/25 09:53:03;;;;;;;0.10;0.10;;;;;;;7.31;63.81;101290.91;5109247;28;20402;-88
2023/02/25 09:55:37;;;;;;;0.20;0.20;;;;;;;7.31;64.26;101283.00;5098236;28;20028;-88
2023/02/25 09:58:16;;;;;;;0.20;0.20;;;;;;;7.27;63.42;101287.38;5096483;28;20020;-87
2023/02/25 10:00:48;;;;;;;0.10;0.10;;;;;;;7.25;63.48;101289.16;5110439;28;20024;-87
2023/02/25 10:06:03;;;;;;;0.10;0.10;;;;;;;7.53;63.09;101299.69;5072001;28;20391;-85
2023/02/25 10:11:12;;;;;;;0.10;0.10;;;;;;;7.69;62.38;101300.56;5064350;28;20080;-84
2023/02/25 10:24:45;;;;;;;0.20;0.20;;;;;;;8.21;60.82;101319.84;5089577;27;1873301;-84
2023/02/25 10:27:29;;;;;;;0.20;0.20;;;;;;;8.31;61.58;101321.59;5129493;28;20031;-86
2023/02/25 10:30:02;;;;;;;0.57;0.57;;;;;;;8.23;61.65;101323.34;5130503;28;20019;-84
2023/02/25 10:32:35;;;;;;;6.10;0.95;;;;;;;8.15;61.40;101330.41;5125309;28;20027;-86
2023/02/25 10:35:16;;;;;;;0.10;0.10;;;;;;;8.13;62.45;101338.34;5111429;28;20032;-87
2023/02/25 10:37:43;;;;;;;0.10;0.10;;;;;;;8.01;62.64;101341.88;5114309;28;20020;-85
2023/02/25 10:40:16;;;;;;;0.10;0.10;;;;;;;7.97;62.39;101332.19;5113301;28;20054;-86
2023/02/25 10:42:48;;;;;;;0.10;0.10;;;;;;;7.91;63.69;101342.75;5112793;28;20119;-86
2023/02/25 10:45:21;;;;;;;2.80;2.50;;;;;;;7.88;63.79;101345.41;5113845;28;20051;-86
2023/02/25 10:47:53;;;;;;;0.10;0.10;;;;;;;7.84;63.86;101341.91;5112736;28;20034;-85
2023/02/25 10:50:24;;;;;;;0.20;0.20;;;;;;;7.89;64.52;101344.53;5112908;28;20439;-86
2023/02/25 10:52:54;;;;;;;0.20;0.20;;;;;;;7.96;64.91;101346.25;5111272;28;20023;-85
2023/02/25 10:58:35;;;;;;;0.10;0.10;;;;;;;8.20;63.53;101348.00;5097951;27;20396;-84
2023/02/25 11:01:20;;;;;;;0.20;0.20;;;;;;;8.24;63.38;101341.81;5089197;28;20056;-84
2023/02/25 11:03:57;;;;;;;0.10;0.10;;;;;;;8.28;63.64;101345.34;5115030;28;20032;-84
2023/02/25 11:12:09;;;;;;;0.10;0.10;;;;;;;8.88;62.71;101341.63;5092114;27;20382;-86
2023/02/25 11:14:39;;;;;;;0.10;0.10;;;;;;;9.13;61.91;101345.00;5093969;28;20120;-85
2023/02/25 11:17:19;;;;;;;0.10;0.10;;;;;;;9.44;61.83;101355.38;5093869;28;20024;-86
2023/02/25 11:19:57;;;;;;;0.10;0.10;;;;;;;9.65;58.42;101359.66;5096691;28;20028;-86
2023/02/25 11:22:33;;;;;;;0.20;0.20;;;;;;;9.91;58.48;101360.34;5095631;28;20020;-86
2023/02/25 11:25:02;;;;;;;0.20;0.20;;;;;;;9.95;56.11;101362.06;5090060;28;20089;-85
2023/02/25 11:27:35;;;;;;;0.10;0.10;;;;;;;9.95;57.35;101360.28;5089734;28;20028;-86
2023/02/25 11:30:06;;;;;;;0.10;0.10;;;;;;;9.86;58.40;101360.38;5089777;28;20017;-86
2023/02/25 11:32:32;;;;;;;0.20;0.20;;;;;;;9.88;57.81;101366.50;5084405;28;20437;-86
2023/02/25 11:35:07;;;;;;;0.20;0.20;;;;;;;9.96;55.80;101359.38;5084264;28;20033;-86
2023/02/25 11:40:30;;;;;;;0.20;0.20;;;;;;;10.34;55.40;101381.97;5087480;28;20163;-86
2023/02/25 11:45:49;;;;;;;0.20;0.20;;;;;;;10.03;52.69;101408.75;5090453;27;20362;-87
2023/02/25 11:48:20;;;;;;;0.10;0.10;;;;;;;9.66;55.07;101422.25;5071353;28;20107;-88
2023/02/25 11:51:12;;;;;;;1.98;0.52;;;;;;;9.25;55.55;101425.16;5085197;28;20009;-86
2023/02/25 11:56:32;;;;;;;0.20;0.20;;;;;;;8.51;55.23;101405.16;5073782;28;20349;-86
2023/02/25 12:02:16;;;;;;;0.10;0.10;;;;;;;8.29;56.21;101402.53;5091932;27;20444;-86
2023/02/25 12:05:13;;;;;;;0.10;0.10;;;;;;;8.15;55.39;101406.94;5071030;28;20398;-85
2023/02/25 12:21:24;;;;;;;0.10;0.10;;;;;;;8.20;55.50;101397.25;5093559;27;1334184;-85
2023/02/25 12:24:18;;;;;;;0.15;0.15;;;;;;;8.35;55.68;101391.97;5112845;28;20050;-85
2023/02/25 12:27:24;;;;;;;0.10;0.10;;;;;;;8.46;54.75;101391.06;5127922;28;20031;-85
2023/02/25 12:32:55;;;;;;;0.10;0.10;;;;;;;8.58;55.87;101389.31;5028052;27;3336603;-84
2023/02/25 12:41:21;;;;;;;0.20;0.20;;;;;;;8.76;54.91;101391.88;5138316;27;20386;-85
2023/02/25 12:43:51;;;;;;;0.10;0.10;;;;;;;8.92;54.95;101398.00;5127907;28;20393;-85
2023/02/25 12:46:46;;;;;;;0.20;0.20;;;;;;;9.31;54.97;101389.00;5131107;27;20024;-87
2023/02/25 12:49:45;;;;;;;0.10;0.10;;;;;;;9.76;52.60;101390.44;5128509;28;20031;-86
2023/02/25 12:52:34;;;;;;;0.10;0.10;;;;;;;9.96;51.99;101396.44;5128373;28;20030;-86
2023/02/25 12:57:54;;;;;;;0.20;0.20;;;;;;;10.25;49.34;101395.28;5064556;27;20386;-86
2023/02/25 13:00:40;;;;;;;0.20;0.20;;;;;;;10.48;49.27;101397.75;5065665;28;20037;-87
2023/02/25 13:03:32;;;;;;;0.10;0.10;;;;;;;10.64;48.81;101400.22;5062161;27;20017;-86
2023/02/25 13:14:45;;;;;;;0.20;0.20;;;;;;;10.79;48.89;101407.13;5094136;27;20595;-84
2023/02/25 13:23:28;;;;;;;0.10;0.10;;;;;;;10.59;48.18;101420.59;5047969;28;20395;-85